Tomini Victory — V7XE9 — position and weather

sailwx.info

Track history (hours):
 
Tides and Currents Weather Stations Pressure Air Temp Water Temp Dewpoint Dewpoint Depression Visibility Wind Speed Wind Dir Waves Ship Positions

Tomini Victory

Last reported at 2017-Nov-12 03:49 UTC. Time now 2017-Nov-18 04:55 UTC.
Position N 36°60' W 009°55'.

Length 190 m; draft 11.2 m.

Type: Cargo ship. MMSI: 538004462.

Date/timePositionNaut miles runAvg speedWind from/ knotsBaromVisibWave heightAir tempDewpointWater temp
2017-Nov-12 03:49N 36°60' W 009°55'412.3
2017-Nov-12 03:30N 37°03' W 009°55'612.5
2017-Nov-12 03:00N 37°10' W 009°56'812.7
2017-Nov-12 02:24N 37°17' W 009°56'2312.2
2017-Nov-12 00:31N 37°40' W 009°59'012.0
2017-Nov-12 00:29N 37°41' W 009°59'912.2
2017-Nov-11 23:46N 37°49' W 009°60'512.3
2017-Nov-11 23:21N 37°54' W 010°00'412.3
2017-Nov-11 23:01N 37°59' W 010°01'812.3
2017-Nov-11 22:21N 38°07' W 010°01'412.3
2017-Nov-11 21:59N 38°11' W 010°02'812.4
2017-Nov-11 21:23N 38°19' W 010°02'512.4
2017-Nov-11 21:00N 38°23' W 010°03'612.3
2017-Nov-11 20:31N 38°29' W 010°04'612.3
2017-Nov-11 20:00N 38°36' W 010°05'612.1
2017-Nov-11 19:30N 38°41' W 010°07'612.1
2017-Nov-11 19:00N 38°47' W 010°07'612.2
2017-Nov-11 18:30N 38°54' W 010°06'611.8
2017-Nov-11 18:00N 38°59' W 010°07'611.9
2017-Nov-11 17:31N 39°05' W 010°06'612.0
2017-Nov-11 17:00N 39°11' W 010°06'612.4
2017-Nov-11 16:30N 39°18' W 010°06'48112.0
2017-Nov-10 00:29N 47°03' W 007°18'16011.8
2017-Nov-09 10:50N 49°13' W 004°59'3410.8
2017-Nov-09 07:39N 49°31' W 004°14'210.5
2017-Nov-09 07:26N 49°32' W 004°11'3411.8
2017-Nov-09 04:34N 49°49' W 003°26'313.3
2017-Nov-09 04:21N 49°51' W 003°22'413.4
2017-Nov-09 04:01N 49°53' W 003°16'713.4
2017-Nov-09 03:31N 49°57' W 003°07'713.3
2017-Nov-09 03:01N 49°59' W 002°57'713.1
2017-Nov-09 02:30N 50°00' W 002°47'612.6
2017-Nov-09 02:01N 50°02' W 002°38'3010.2
2017-Nov-08 23:02N 50°10' W 001°53'0 8.8
2017-Nov-08 22:59N 50°11' W 001°52'4 8.7
2017-Nov-08 22:30N 50°12' W 001°46'5 9.0
2017-Nov-08 22:00N 50°13' W 001°39'5 9.7
2017-Nov-08 21:30N 50°14' W 001°32'510.4
2017-Nov-08 21:00N 50°15' W 001°24'4213.5
2017-Nov-08 17:52N 50°28' W 000°20'514.3
2017-Nov-08 17:30N 50°29' W 000°12'714.1
2017-Nov-08 17:00N 50°31' W 000°02'714.0
2017-Nov-08 16:30N 50°33' E 000°09'713.7
2017-Nov-08 16:01N 50°35' E 000°19'713.3
2017-Nov-08 15:30N 50°36' E 000°29'612.7
2017-Nov-08 15:00N 50°40' E 000°38'612.4
2017-Nov-08 14:30N 50°43' E 000°46'611.9
2017-Nov-08 14:00N 50°46' E 000°54'19 8.5
2017-Nov-08 11:48N 50°58' E 001°17'412.8
2017-Nov-08 11:30N 51°01' E 001°21'714.1
2017-Nov-08 11:00N 51°05' E 001°30'815.4
2017-Nov-08 10:30N 51°10' E 001°40'815.4
2017-Nov-08 10:00N 51°16' E 001°47'714.9
2017-Nov-08 09:30N 51°22' E 001°53'714.1
2017-Nov-08 09:00N 51°28' E 002°00'713.3
2017-Nov-08 08:30N 51°33' E 002°07'712.5
2017-Nov-08 07:58N 51°38' E 002°13'712.3
2017-Nov-08 07:24N 51°44' E 002°21'  
2017-Nov-06 02:26N 57°38' E 010°40'0 0.0
2017-Nov-06 01:47N 57°38' E 010°40'0 0.0
2017-Nov-06 01:26N 57°38' E 010°40'0 0.1
2017-Nov-06 00:59N 57°38' E 010°40'0 0.0
2017-Nov-06 00:23N 57°38' E 010°40'0 0.0
2017-Nov-05 23:53N 57°38' E 010°40'0 0.0
2017-Nov-05 23:29N 57°38' E 010°40'0 0.0
2017-Nov-05 22:14N 57°38' E 010°40'0 0.0
2017-Nov-05 21:50N 57°38' E 010°40'0 0.0
2017-Nov-05 21:14N 57°38' E 010°40'0 0.0
2017-Nov-05 20:53N 57°38' E 010°40'0 0.0
2017-Nov-05 20:29N 57°38' E 010°40'0 0.0
2017-Nov-05 19:59N 57°38' E 010°40'0 0.0
2017-Nov-05 19:26N 57°38' E 010°40'0 0.0
2017-Nov-05 18:59N 57°38' E 010°40'0 0.0
2017-Nov-05 18:29N 57°38' E 010°40'0 0.0
2017-Nov-05 17:59N 57°38' E 010°40'0 0.0
2017-Nov-05 17:29N 57°38' E 010°40'0 0.0
2017-Nov-05 16:59N 57°38' E 010°40'0 0.0
2017-Nov-05 16:23N 57°38' E 010°40'0 0.0
2017-Nov-05 15:59N 57°38' E 010°40'0 0.0
2017-Nov-05 15:20N 57°38' E 010°40'0 0.0
2017-Nov-05 14:44N 57°38' E 010°40'0 0.0
2017-Nov-05 14:23N 57°38' E 010°40'0 0.0
2017-Nov-05 13:53N 57°38' E 010°40'0 0.0
2017-Nov-05 13:29N 57°38' E 010°40'0 0.0
2017-Nov-05 12:59N 57°38' E 010°40'0 0.0
2017-Nov-05 12:26N 57°38' E 010°40'0 0.0
2017-Nov-05 11:35N 57°38' E 010°40'0 0.1
2017-Nov-05 11:29N 57°38' E 010°40'0 0.0
2017-Nov-05 10:53N 57°38' E 010°40'0 0.0
2017-Nov-05 10:08N 57°38' E 010°40'0 0.1
2017-Nov-05 09:59N 57°38' E 010°40'0 0.0
2017-Nov-05 09:11N 57°38' E 010°40'0 0.1
2017-Nov-05 08:56N 57°38' E 010°40'0 0.0
2017-Nov-05 08:29N 57°38' E 010°40'0 0.0
2017-Nov-05 07:56N 57°38' E 010°40'0 0.3
2017-Nov-05 07:29N 57°38' E 010°40'2 3.0
2017-Nov-05 06:59N 57°38' E 010°43'4 7.7
2017-Nov-05 06:30N 57°37' E 010°50'0 0.5
2017-Nov-05 06:00N 57°37' E 010°50'1 2.0
2017-Nov-05 05:30N 57°37' E 010°52'5 9.0
2017-Nov-05 04:59N 57°35' E 010°60'612.0
2017-Nov-05 04:30N 57°33' E 011°09'611.9
2017-Nov-05 04:00N 57°30' E 011°19'611.2
2017-Nov-05 03:29N 57°26' E 011°27'612.2
2017-Nov-05 03:00N 57°20' E 011°31'612.0
2017-Nov-05 02:30N 57°15' E 011°34'612.3
2017-Nov-05 02:00N 57°09' E 011°38'712.6
2017-Nov-05 01:27N 57°03' E 011°43'5611.4
2017-Nov-04 20:33N 56°09' E 011°14'112.2
2017-Nov-04 20:29N 56°09' E 011°13'4611.0
2017-Nov-04 16:20N 55°24' E 011°01'512.4
2017-Nov-04 15:56N 55°19' E 011°03'512.6
2017-Nov-04 15:30N 55°14' E 011°06'811.6
2017-Nov-04 14:51N 55°07' E 010°59'412.0
2017-Nov-04 14:30N 55°03' E 010°60'611.5
2017-Nov-04 14:00N 54°58' E 010°56'612.1
2017-Nov-04 13:30N 54°53' E 010°50'612.4
2017-Nov-04 13:00N 54°47' E 010°49'611.7
2017-Nov-04 12:30N 54°41' E 010°47'612.7
2017-Nov-04 12:00N 54°37' E 010°56'612.2
2017-Nov-04 11:30N 54°36' E 011°07'612.2
2017-Nov-04 11:00N 54°34' E 011°17'612.6
2017-Nov-04 10:30N 54°32' E 011°27'612.5
2017-Nov-04 10:00N 54°29' E 011°37'612.5
2017-Nov-04 09:30N 54°27' E 011°47'612.3
2017-Nov-04 09:00N 54°27' E 011°57'612.1
2017-Nov-04 08:30N 54°27' E 012°08'510.2
2017-Nov-04 08:00N 54°31' E 012°13'611.4
2017-Nov-04 07:30N 54°36' E 012°16'1111.5
2017-Nov-04 06:35N 54°42' E 012°31'111.2
2017-Nov-04 06:30N 54°43' E 012°32'611.7
2017-Nov-04 05:59N 54°46' E 012°41'3711.7
2017-Nov-04 02:47N 54°59' E 013°42'411.5
2017-Nov-04 02:28N 55°01' E 013°48'511.4
2017-Nov-04 02:00N 55°02' E 013°57'611.4
2017-Nov-04 01:29N 55°05' E 014°06'711.9
2017-Nov-04 00:54N 55°10' E 014°14'612.0
2017-Nov-04 00:26N 55°15' E 014°20'512.1
2017-Nov-04 00:00N 55°19' E 014°25'612.0
2017-Nov-03 23:30N 55°24' E 014°32'811.5
2017-Nov-03 22:49N 55°29' E 014°43'411.6
2017-Nov-03 22:30N 55°30' E 014°48'611.7
2017-Nov-03 21:58N 55°33' E 014°58'811.8
2017-Nov-03 21:17N 55°37' E 015°11'311.7
2017-Nov-03 21:00N 55°38' E 015°16'612.1
2017-Nov-03 20:30N 55°40' E 015°26'611.9
2017-Nov-03 20:00N 55°41' E 015°37'612.0
2017-Nov-03 19:30N 55°43' E 015°47'611.9
2017-Nov-03 19:00N 55°44' E 015°57'611.9
2017-Nov-03 18:30N 55°45' E 016°07'612.0
2017-Nov-03 18:00N 55°47' E 016°18'611.9
2017-Nov-03 17:30N 55°48' E 016°28'911.8
2017-Nov-03 16:43N 55°51' E 016°44'311.8
2017-Nov-03 16:27N 55°51' E 016°50'30211.5
2017-Nov-02 14:17N 59°36' E 023°07'312.6
2017-Nov-02 14:00N 59°37' E 023°13'612.5
2017-Nov-02 13:30N 59°39' E 023°25'612.5
2017-Nov-02 13:00N 59°40' E 023°37'612.6
2017-Nov-02 12:30N 59°42' E 023°49'1012.6
2017-Nov-02 11:45N 59°45' E 024°07'412.7
2017-Nov-02 11:28N 59°46' E 024°14'612.9
2017-Nov-02 11:00N 59°47' E 024°26'612.4
2017-Nov-02 10:30N 59°49' E 024°38'611.9
2017-Nov-02 10:00N 59°50' E 024°49'612.3
2017-Nov-02 09:30N 59°51' E 025°01'612.2
2017-Nov-02 09:00N 59°52' E 025°13'812.4
2017-Nov-02 08:20N 59°54' E 025°30'3312.4
2017-Nov-02 05:37N 60°02' E 026°34'112.4
2017-Nov-02 05:30N 60°01' E 026°37'1112.6
2017-Nov-02 04:37N 59°60' E 026°60'412.2
2017-Nov-02 04:19N 60°00' E 027°07'  
Track history (hours):
 
Tides and Currents Weather Stations Pressure Air Temp Water Temp Dewpoint Dewpoint Depression Visibility Wind Speed Wind Dir Waves Ship Positions

Tomini Victory

Last reported at 2017-Nov-12 03:49 UTC. Time now 2017-Nov-18 04:55 UTC.
Position N 36°60' W 009°55'.

Length 190 m; draft 11.2 m.

Type: Cargo ship. MMSI: 538004462.

Date/timePositionNaut miles runAvg speedWind from/ knotsBaromVisibWave heightAir tempDewpointWater temp
2017-Nov-12 03:49N 36°60' W 009°55'412.3
2017-Nov-12 03:30N 37°03' W 009°55'612.5
2017-Nov-12 03:00N 37°10' W 009°56'812.7
2017-Nov-12 02:24N 37°17' W 009°56'2312.2
2017-Nov-12 00:31N 37°40' W 009°59'012.0
2017-Nov-12 00:29N 37°41' W 009°59'912.2
2017-Nov-11 23:46N 37°49' W 009°60'512.3
2017-Nov-11 23:21N 37°54' W 010°00'412.3
2017-Nov-11 23:01N 37°59' W 010°01'812.3
2017-Nov-11 22:21N 38°07' W 010°01'412.3
2017-Nov-11 21:59N 38°11' W 010°02'812.4
2017-Nov-11 21:23N 38°19' W 010°02'512.4
2017-Nov-11 21:00N 38°23' W 010°03'612.3
2017-Nov-11 20:31N 38°29' W 010°04'612.3
2017-Nov-11 20:00N 38°36' W 010°05'612.1
2017-Nov-11 19:30N 38°41' W 010°07'612.1
2017-Nov-11 19:00N 38°47' W 010°07'612.2
2017-Nov-11 18:30N 38°54' W 010°06'611.8
2017-Nov-11 18:00N 38°59' W 010°07'611.9
2017-Nov-11 17:31N 39°05' W 010°06'612.0
2017-Nov-11 17:00N 39°11' W 010°06'612.4
2017-Nov-11 16:30N 39°18' W 010°06'48112.0
2017-Nov-10 00:29N 47°03' W 007°18'16011.8
2017-Nov-09 10:50N 49°13' W 004°59'3410.8
2017-Nov-09 07:39N 49°31' W 004°14'210.5
2017-Nov-09 07:26N 49°32' W 004°11'3411.8
2017-Nov-09 04:34N 49°49' W 003°26'313.3
2017-Nov-09 04:21N 49°51' W 003°22'413.4
2017-Nov-09 04:01N 49°53' W 003°16'713.4
2017-Nov-09 03:31N 49°57' W 003°07'713.3
2017-Nov-09 03:01N 49°59' W 002°57'713.1
2017-Nov-09 02:30N 50°00' W 002°47'612.6
2017-Nov-09 02:01N 50°02' W 002°38'3010.2
2017-Nov-08 23:02N 50°10' W 001°53'0 8.8
2017-Nov-08 22:59N 50°11' W 001°52'4 8.7
2017-Nov-08 22:30N 50°12' W 001°46'5 9.0
2017-Nov-08 22:00N 50°13' W 001°39'5 9.7
2017-Nov-08 21:30N 50°14' W 001°32'510.4
2017-Nov-08 21:00N 50°15' W 001°24'4213.5
2017-Nov-08 17:52N 50°28' W 000°20'514.3
2017-Nov-08 17:30N 50°29' W 000°12'714.1
2017-Nov-08 17:00N 50°31' W 000°02'714.0
2017-Nov-08 16:30N 50°33' E 000°09'713.7
2017-Nov-08 16:01N 50°35' E 000°19'713.3
2017-Nov-08 15:30N 50°36' E 000°29'612.7
2017-Nov-08 15:00N 50°40' E 000°38'612.4
2017-Nov-08 14:30N 50°43' E 000°46'611.9
2017-Nov-08 14:00N 50°46' E 000°54'19 8.5
2017-Nov-08 11:48N 50°58' E 001°17'412.8
2017-Nov-08 11:30N 51°01' E 001°21'714.1
2017-Nov-08 11:00N 51°05' E 001°30'815.4
2017-Nov-08 10:30N 51°10' E 001°40'815.4
2017-Nov-08 10:00N 51°16' E 001°47'714.9
2017-Nov-08 09:30N 51°22' E 001°53'714.1
2017-Nov-08 09:00N 51°28' E 002°00'713.3
2017-Nov-08 08:30N 51°33' E 002°07'712.5
2017-Nov-08 07:58N 51°38' E 002°13'712.3
2017-Nov-08 07:24N 51°44' E 002°21'  
2017-Nov-06 02:26N 57°38' E 010°40'0 0.0
2017-Nov-06 01:47N 57°38' E 010°40'0 0.0
2017-Nov-06 01:26N 57°38' E 010°40'0 0.1
2017-Nov-06 00:59N 57°38' E 010°40'0 0.0
2017-Nov-06 00:23N 57°38' E 010°40'0 0.0
2017-Nov-05 23:53N 57°38' E 010°40'0 0.0
2017-Nov-05 23:29N 57°38' E 010°40'0 0.0
2017-Nov-05 22:14N 57°38' E 010°40'0 0.0
2017-Nov-05 21:50N 57°38' E 010°40'0 0.0
2017-Nov-05 21:14N 57°38' E 010°40'0 0.0
2017-Nov-05 20:53N 57°38' E 010°40'0 0.0
2017-Nov-05 20:29N 57°38' E 010°40'0 0.0
2017-Nov-05 19:59N 57°38' E 010°40'0 0.0
2017-Nov-05 19:26N 57°38' E 010°40'0 0.0
2017-Nov-05 18:59N 57°38' E 010°40'0 0.0
2017-Nov-05 18:29N 57°38' E 010°40'0 0.0
2017-Nov-05 17:59N 57°38' E 010°40'0 0.0
2017-Nov-05 17:29N 57°38' E 010°40'0 0.0
2017-Nov-05 16:59N 57°38' E 010°40'0 0.0
2017-Nov-05 16:23N 57°38' E 010°40'0 0.0
2017-Nov-05 15:59N 57°38' E 010°40'0 0.0
2017-Nov-05 15:20N 57°38' E 010°40'0 0.0
2017-Nov-05 14:44N 57°38' E 010°40'0 0.0
2017-Nov-05 14:23N 57°38' E 010°40'0 0.0
2017-Nov-05 13:53N 57°38' E 010°40'0 0.0
2017-Nov-05 13:29N 57°38' E 010°40'0 0.0
2017-Nov-05 12:59N 57°38' E 010°40'0 0.0
2017-Nov-05 12:26N 57°38' E 010°40'0 0.0
2017-Nov-05 11:35N 57°38' E 010°40'0 0.1
2017-Nov-05 11:29N 57°38' E 010°40'0 0.0
2017-Nov-05 10:53N 57°38' E 010°40'0 0.0
2017-Nov-05 10:08N 57°38' E 010°40'0 0.1
2017-Nov-05 09:59N 57°38' E 010°40'0 0.0
2017-Nov-05 09:11N 57°38' E 010°40'0 0.1
2017-Nov-05 08:56N 57°38' E 010°40'0 0.0
2017-Nov-05 08:29N 57°38' E 010°40'0 0.0
2017-Nov-05 07:56N 57°38' E 010°40'0 0.3
2017-Nov-05 07:29N 57°38' E 010°40'2 3.0
2017-Nov-05 06:59N 57°38' E 010°43'4 7.7
2017-Nov-05 06:30N 57°37' E 010°50'0 0.5
2017-Nov-05 06:00N 57°37' E 010°50'1 2.0
2017-Nov-05 05:30N 57°37' E 010°52'5 9.0
2017-Nov-05 04:59N 57°35' E 010°60'612.0
2017-Nov-05 04:30N 57°33' E 011°09'611.9
2017-Nov-05 04:00N 57°30' E 011°19'611.2
2017-Nov-05 03:29N 57°26' E 011°27'612.2
2017-Nov-05 03:00N 57°20' E 011°31'612.0
2017-Nov-05 02:30N 57°15' E 011°34'612.3
2017-Nov-05 02:00N 57°09' E 011°38'712.6
2017-Nov-05 01:27N 57°03' E 011°43'5611.4
2017-Nov-04 20:33N 56°09' E 011°14'112.2
2017-Nov-04 20:29N 56°09' E 011°13'4611.0
2017-Nov-04 16:20N 55°24' E 011°01'512.4
2017-Nov-04 15:56N 55°19' E 011°03'512.6
2017-Nov-04 15:30N 55°14' E 011°06'811.6
2017-Nov-04 14:51N 55°07' E 010°59'412.0
2017-Nov-04 14:30N 55°03' E 010°60'611.5
2017-Nov-04 14:00N 54°58' E 010°56'612.1
2017-Nov-04 13:30N 54°53' E 010°50'612.4
2017-Nov-04 13:00N 54°47' E 010°49'611.7
2017-Nov-04 12:30N 54°41' E 010°47'612.7
2017-Nov-04 12:00N 54°37' E 010°56'612.2
2017-Nov-04 11:30N 54°36' E 011°07'612.2
2017-Nov-04 11:00N 54°34' E 011°17'612.6
2017-Nov-04 10:30N 54°32' E 011°27'612.5
2017-Nov-04 10:00N 54°29' E 011°37'612.5
2017-Nov-04 09:30N 54°27' E 011°47'612.3
2017-Nov-04 09:00N 54°27' E 011°57'612.1
2017-Nov-04 08:30N 54°27' E 012°08'510.2
2017-Nov-04 08:00N 54°31' E 012°13'611.4
2017-Nov-04 07:30N 54°36' E 012°16'1111.5
2017-Nov-04 06:35N 54°42' E 012°31'111.2
2017-Nov-04 06:30N 54°43' E 012°32'611.7
2017-Nov-04 05:59N 54°46' E 012°41'3711.7
2017-Nov-04 02:47N 54°59' E 013°42'411.5
2017-Nov-04 02:28N 55°01' E 013°48'511.4
2017-Nov-04 02:00N 55°02' E 013°57'611.4
2017-Nov-04 01:29N 55°05' E 014°06'711.9
2017-Nov-04 00:54N 55°10' E 014°14'612.0
2017-Nov-04 00:26N 55°15' E 014°20'512.1
2017-Nov-04 00:00N 55°19' E 014°25'612.0
2017-Nov-03 23:30N 55°24' E 014°32'811.5
2017-Nov-03 22:49N 55°29' E 014°43'411.6
2017-Nov-03 22:30N 55°30' E 014°48'611.7
2017-Nov-03 21:58N 55°33' E 014°58'811.8
2017-Nov-03 21:17N 55°37' E 015°11'311.7
2017-Nov-03 21:00N 55°38' E 015°16'612.1
2017-Nov-03 20:30N 55°40' E 015°26'611.9
2017-Nov-03 20:00N 55°41' E 015°37'612.0
2017-Nov-03 19:30N 55°43' E 015°47'611.9
2017-Nov-03 19:00N 55°44' E 015°57'611.9
2017-Nov-03 18:30N 55°45' E 016°07'612.0
2017-Nov-03 18:00N 55°47' E 016°18'611.9
2017-Nov-03 17:30N 55°48' E 016°28'911.8
2017-Nov-03 16:43N 55°51' E 016°44'311.8
2017-Nov-03 16:27N 55°51' E 016°50'30211.5
2017-Nov-02 14:17N 59°36' E 023°07'312.6
2017-Nov-02 14:00N 59°37' E 023°13'612.5
2017-Nov-02 13:30N 59°39' E 023°25'612.5
2017-Nov-02 13:00N 59°40' E 023°37'612.6
2017-Nov-02 12:30N 59°42' E 023°49'1012.6
2017-Nov-02 11:45N 59°45' E 024°07'412.7
2017-Nov-02 11:28N 59°46' E 024°14'612.9
2017-Nov-02 11:00N 59°47' E 024°26'612.4
2017-Nov-02 10:30N 59°49' E 024°38'611.9
2017-Nov-02 10:00N 59°50' E 024°49'612.3
2017-Nov-02 09:30N 59°51' E 025°01'612.2
2017-Nov-02 09:00N 59°52' E 025°13'812.4
2017-Nov-02 08:20N 59°54' E 025°30'3312.4
2017-Nov-02 05:37N 60°02' E 026°34'112.4
2017-Nov-02 05:30N 60°01' E 026°37'1112.6
2017-Nov-02 04:37N 59°60' E 026°60'412.2
2017-Nov-02 04:19N 60°00' E 027°07'  

Dump ship's entire track history